K9MN

Rochester

Rochester, Minnesota, USA
METAR K9MN 211259Z AUTO 33005KT 10SM OVC008 17/17 A2999 RMK AO1
Observed Flight Rules
Jul-21 @ 12:59 UTC (38 minutes ago) Instrument Flight Rules
Wind Visibility Clouds
330° at 5 knots 10 miles
  • Overcast at 800' AGL
Temperatures Readings
Current 17°C / 63°F
Dewpoint 17°C / 63°F
Humidity 100%
Altimeter 29.99" Hg
Pressure 1016 hPa
Elevation 355
METAR K9MN 211259Z AUTO 33005KT 10SM OVC008 17/17 A2999 RMK AO1
Observed Flight Rules
Jul-21 @ 12:59 UTC
(38 minutes ago)
IFR
Wind Visibility
330° at 5 knots 10 miles
Clouds
  • Overcast at 800' AGL
Temperature Dewpoint
17°C / 63°F 17°C / 63°F
Humidity Altimeter Pressure
100% 29.99" Hg 1016 hPa